Time;durP1;ratioP1;P1;durP2;ratioP2;P2;SDS_P1;SDS_P2;PMS_P1;PMS_P2;Temp;Humidity;BMP_temperature;BMP_pressure;BME280_temperature;BME280_humidity;BME280_pressure;Samples;Min_cycle;Max_cycle;Signal;HPM_P1;HPM_P2
2022/02/08 00:02:02;;;;;;;4.00;2.15;;;6.80;90.60;;;;;;4880711;29;20080;-81
2022/02/08 00:04:31;;;;;;;4.47;2.38;;;6.70;89.90;;;;;;4881250;29;20500;-81
2022/02/08 00:07:00;;;;;;;6.13;3.92;;;6.70;90.10;;;;;;4895125;29;20407;-81
2022/02/08 00:09:27;;;;;;;5.68;1.75;;;6.60;90.40;;;;;;4897499;29;20028;-81
2022/02/08 00:11:52;;;;;;;2.80;1.70;;;6.60;90.00;;;;;;4897189;29;20073;-81
2022/02/08 00:14:18;;;;;;;3.60;2.05;;;6.60;90.00;;;;;;4916483;29;20106;-81
2022/02/08 00:16:44;;;;;;;3.58;2.20;;;6.60;90.10;;;;;;4916050;29;20044;-81
2022/02/08 00:19:10;;;;;;;4.30;1.70;;;6.60;90.20;;;;;;4916111;29;20396;-81
2022/02/08 00:21:35;;;;;;;3.40;2.20;;;6.60;90.30;;;;;;4915894;29;20051;-82
2022/02/08 00:24:01;;;;;;;3.22;1.80;;;6.60;90.40;;;;;;4916295;29;20111;-81
2022/02/08 00:26:27;;;;;;;2.97;1.75;;;6.60;90.10;;;;;;4888935;29;20033;-81
2022/02/08 00:28:53;;;;;;;2.65;1.70;;;6.60;89.60;;;;;;4895671;29;20052;-80
2022/02/08 00:31:19;;;;;;;3.60;2.33;;;6.70;90.20;;;;;;4898152;29;20028;-82
2022/02/08 00:33:45;;;;;;;2.47;2.00;;;6.70;91.00;;;;;;4915331;29;20028;-81
2022/02/08 00:36:11;;;;;;;5.07;2.63;;;6.60;91.20;;;;;;4914697;29;20034;-82
2022/02/08 00:38:37;;;;;;;5.15;2.60;;;6.40;92.00;;;;;;4913508;29;20035;-82
2022/02/08 00:41:04;;;;;;;4.88;2.67;;;6.20;92.10;;;;;;4916046;29;20024;-81
2022/02/08 00:44:17;;;;;;;5.10;2.90;;;6.00;92.10;;;;;;4916125;29;20472;-81
2022/02/08 00:49:02;;;;;;;2.88;2.35;;;5.70;92.50;;;;;;4916027;29;20453;-82
2022/02/08 00:51:38;;;;;;;4.20;2.50;;;5.50;92.40;;;;;;4914754;29;20025;-82
2022/02/08 00:54:05;;;;;;;4.85;2.53;;;5.30;92.60;;;;;;4916214;29;20034;-81
2022/02/08 00:56:30;;;;;;;3.97;2.40;;;5.20;92.80;;;;;;4916007;29;20107;-81
2022/02/08 00:58:56;;;;;;;3.90;2.40;;;5.20;93.00;;;;;;4898838;29;20111;-82
2022/02/08 01:01:22;;;;;;;2.58;2.10;;;5.10;92.80;;;;;;4915763;29;20025;-81
2022/02/08 01:03:47;;;;;;;4.53;2.90;;;5.10;92.70;;;;;;4916035;29;20040;-81
2022/02/08 01:06:15;;;;;;;8.52;3.53;;;5.10;92.60;;;;;;4913834;29;20024;-80
2022/02/08 01:08:41;;;;;;;6.85;3.40;;;5.10;92.60;;;;;;4918051;29;20024;-82
2022/02/08 01:11:10;;;;;;;5.30;2.75;;;5.20;92.60;;;;;;4919280;29;20488;-81
2022/02/08 01:13:38;;;;;;;5.65;2.95;;;5.20;92.10;;;;;;4900958;29;20035;-81
2022/02/08 01:16:04;;;;;;;6.70;3.05;;;5.20;92.30;;;;;;4915051;29;20024;-81
2022/02/08 01:18:32;;;;;;;6.65;3.45;;;5.20;92.00;;;;;;4901785;29;20120;-81
2022/02/08 01:20:58;;;;;;;6.05;3.80;;;5.30;91.80;;;;;;4917384;29;20028;-81
2022/02/08 01:23:24;;;;;;;4.20;2.55;;;5.30;91.70;;;;;;4916182;29;20040;-81
2022/02/08 01:25:54;;;;;;;3.17;2.35;;;5.30;91.40;;;;;;4902111;29;20500;-82
2022/02/08 01:35:55;;;;;;;3.45;2.13;;;5.40;91.20;;;;;;4919374;29;20021;-82
2022/02/08 01:38:26;;;;;;;2.13;1.70;;;5.50;91.30;;;;;;4919062;29;20032;-81
2022/02/08 01:50:11;;;;;;;3.75;1.70;;;5.70;90.30;;;;;;4919343;29;20087;-81
2022/02/08 01:51:58;;;;;;;2.65;1.67;;;5.80;90.50;;;;;;4914432;29;20032;-81
2022/02/08 01:54:25;;;;;;;4.15;1.90;;;5.70;91.10;;;;;;4917942;29;20031;-82
2022/02/08 01:56:52;;;;;;;3.42;1.80;;;5.70;91.40;;;;;;4919155;29;20024;-82
2022/02/08 01:59:19;;;;;;;3.45;1.73;;;5.50;91.10;;;;;;4901564;29;20050;-81
2022/02/08 02:01:45;;;;;;;2.67;1.85;;;5.50;91.30;;;;;;4918808;29;20035;-81
2022/02/08 02:04:11;;;;;;;3.20;2.00;;;5.40;91.60;;;;;;4918788;29;20401;-82
2022/02/08 02:06:36;;;;;;;7.57;1.90;;;5.50;91.50;;;;;;4918723;29;20028;-82
2022/02/08 02:09:05;;;;;;;3.08;1.77;;;5.50;91.60;;;;;;4917675;29;20650;-82
2022/02/08 02:11:30;;;;;;;2.17;1.42;;;5.50;91.10;;;;;;4901608;29;20119;-81
2022/02/08 02:13:57;;;;;;;1.40;1.30;;;5.60;90.70;;;;;;4918861;29;20099;-81
2022/02/08 02:16:53;;;;;;;4.57;1.63;;;5.70;90.70;;;;;;4918193;29;20038;-81
2022/02/08 02:19:09;;;;;;;1.83;1.50;;;5.70;90.20;;;;;;4917743;29;20025;-81
2022/02/08 02:21:34;;;;;;;1.83;1.30;;;5.80;90.10;;;;;;4918142;29;20111;-82
2022/02/08 02:24:00;;;;;;;3.45;1.60;;;5.80;90.00;;;;;;4901029;29;20485;-82
2022/02/08 02:26:26;;;;;;;3.28;1.65;;;5.80;90.00;;;;;;4918421;29;20103;-81
2022/02/08 02:28:52;;;;;;;4.68;1.73;;;5.90;90.90;;;;;;4917899;29;20058;-81
2022/02/08 02:31:19;;;;;;;2.13;1.58;;;5.90;91.30;;;;;;4918166;29;20020;-81
2022/02/08 02:33:44;;;;;;;2.55;1.30;;;5.80;91.10;;;;;;4901168;29;20028;-81
2022/02/08 02:36:13;;;;;;;2.00;1.40;;;5.80;90.40;;;;;;4901393;29;20038;-81
2022/02/08 02:38:39;;;;;;;1.55;1.27;;;5.80;90.50;;;;;;4900918;29;20102;-81
2022/02/08 02:41:05;;;;;;;2.17;1.48;;;5.70;90.20;;;;;;4918215;29;20024;-81
2022/02/08 02:43:31;;;;;;;2.67;1.42;;;5.70;90.30;;;;;;4918121;29;20058;-81
2022/02/08 02:46:00;;;;;;;5.85;1.55;;;5.70;90.50;;;;;;4918533;29;20527;-81
2022/02/08 02:48:26;;;;;;;5.93;1.65;;;5.60;90.50;;;;;;4901228;29;20038;-81
2022/02/08 02:50:53;;;;;;;2.33;1.38;;;5.70;90.50;;;;;;4918344;29;20028;-81
2022/02/08 02:53:21;;;;;;;1.83;1.38;;;5.60;90.60;;;;;;4901032;29;20027;-81
2022/02/08 02:55:47;;;;;;;4.35;1.65;;;5.60;90.80;;;;;;4901129;29;20024;-82
2022/02/08 02:58:14;;;;;;;1.90;1.65;;;5.60;91.10;;;;;;4918110;29;20441;-81
2022/02/08 03:00:47;;;;;;;2.60;1.65;;;5.60;91.20;;;;;;4917948;29;20478;-82
2022/02/08 03:06:00;;;;;;;2.45;1.73;;;5.50;91.20;;;;;;4917945;29;20020;-81
2022/02/08 03:19:20;;;;;;;18.60;7.32;;;5.40;90.90;;;;;;4917284;29;20437;-81
2022/02/08 03:21:46;;;;;;;32.58;11.75;;;5.50;91.00;;;;;;4900333;29;20024;-82
2022/02/08 03:24:12;;;;;;;31.52;12.70;;;5.50;91.40;;;;;;4917194;29;20503;-82
2022/02/08 03:26:37;;;;;;;14.45;5.47;;;5.50;92.00;;;;;;4900492;29;20455;-82
2022/02/08 03:29:03;;;;;;;5.60;3.05;;;5.50;92.10;;;;;;4899673;29;20052;-81
2022/02/08 03:31:29;;;;;;;3.28;2.00;;;5.50;92.00;;;;;;4916778;29;20035;-82
2022/02/08 03:33:55;;;;;;;2.33;1.88;;;5.50;92.00;;;;;;4900274;29;20032;-81
2022/02/08 03:36:20;;;;;;;2.28;1.60;;;5.50;91.60;;;;;;4915744;29;20024;-81
2022/02/08 03:38:58;;;;;;;2.92;1.50;;;5.50;92.10;;;;;;4915245;29;20075;-82
2022/02/08 03:41:24;;;;;;;1.83;1.55;;;5.50;91.50;;;;;;4899996;29;20024;-82
2022/02/08 03:43:51;;;;;;;12.27;5.35;;;5.50;91.80;;;;;;4916991;29;20040;-82
2022/02/08 03:46:21;;;;;;;5.93;3.28;;;5.50;92.40;;;;;;4916912;29;20020;-82
2022/02/08 03:48:47;;;;;;;3.05;2.35;;;5.50;92.50;;;;;;4916920;29;20075;-81
2022/02/08 03:51:15;;;;;;;3.20;2.35;;;5.50;92.80;;;;;;4899772;29;20073;-82
2022/02/08 03:53:44;;;;;;;2.25;1.90;;;5.50;93.60;;;;;;4916907;29;20480;-81
2022/02/08 03:56:11;;;;;;;6.63;1.95;;;5.50;95.00;;;;;;4900007;29;20079;-82
2022/02/08 03:58:37;;;;;;;3.83;2.17;;;5.50;96.90;;;;;;4916476;29;20079;-82
2022/02/08 04:03:33;;;;;;;4.65;2.40;;;5.60;99.90;;;;;;4917045;29;20040;-81
2022/02/08 04:06:00;;;;;;;6.10;2.67;;;5.60;99.90;;;;;;4915506;29;20028;-82
2022/02/08 04:08:29;;;;;;;6.18;2.50;;;5.70;99.90;;;;;;4899359;29;20032;-82
2022/02/08 04:10:58;;;;;;;4.32;2.47;;;5.70;99.90;;;;;;4916392;29;20017;-81
2022/02/08 04:13:43;;;;;;;4.65;2.25;;;5.70;99.90;;;;;;4916579;29;20094;-81
2022/02/08 04:16:23;;;;;;;6.35;2.53;;;5.70;99.90;;;;;;4915370;29;20075;-82
2022/02/08 04:18:58;;;;;;;4.47;2.30;;;5.70;99.90;;;;;;4916407;29;20028;-81
2022/02/08 04:32:43;;;;;;;5.88;2.00;;;5.60;99.90;;;;;;4916020;29;20095;-81
2022/02/08 04:45:43;;;;;;;10.32;4.00;;;5.10;97.10;;;;;;4916732;29;20028;-81
2022/02/08 04:48:22;;;;;;;26.83;9.95;;;5.10;97.20;;;;;;4916238;29;20474;-82
2022/02/08 04:50:53;;;;;;;6.05;3.05;;;5.10;97.70;;;;;;4915755;29;20476;-82
2022/02/08 04:53:29;;;;;;;20.13;6.90;;;5.10;96.10;;;;;;4914687;29;20028;-82
2022/02/08 04:56:06;;;;;;;14.60;6.50;;;5.00;96.40;;;;;;4916202;29;20568;-83
2022/02/08 04:58:40;;;;;;;15.35;5.50;;;5.00;96.90;;;;;;4914356;29;20035;-82
2022/02/08 05:01:20;;;;;;;11.70;3.67;;;5.00;97.60;;;;;;4899177;29;20023;-82
2022/02/08 05:37:14;;;;;;;13.75;3.20;;;4.90;99.90;;;;;;4916186;29;20504;-81
2022/02/08 05:46:52;;;;;;;13.32;4.28;;;5.00;99.90;;;;;;4915634;29;20024;-82
2022/02/08 05:49:27;;;;;;;19.40;4.70;;;4.80;99.90;;;;;;4915661;29;20064;-82
2022/02/08 05:54:21;;;;;;;5.07;2.75;;;4.50;99.90;;;;;;4918533;29;20024;-82
2022/02/08 05:56:51;;;;;;;12.65;3.08;;;4.50;99.90;;;;;;4919150;29;20119;-81
2022/02/08 05:59:17;;;;;;;17.42;3.75;;;4.30;99.90;;;;;;4918748;29;20020;-82
2022/02/08 06:01:42;;;;;;;5.80;3.33;;;4.30;99.90;;;;;;4919209;29;20532;-82
2022/02/08 06:04:10;;;;;;;8.75;3.53;;;4.30;99.90;;;;;;4919028;29;20500;-81
2022/02/08 06:06:36;;;;;;;8.65;3.42;;;4.40;99.90;;;;;;4918913;29;20028;-81
2022/02/08 06:09:02;;;;;;;6.57;3.50;;;4.40;99.90;;;;;;4917483;29;20114;-81
2022/02/08 06:11:28;;;;;;;7.38;3.70;;;4.40;99.90;;;;;;4918749;29;20578;-80
2022/02/08 06:13:54;;;;;;;8.90;4.85;;;4.50;99.90;;;;;;4918938;29;20025;-80
2022/02/08 06:16:21;;;;;;;10.50;5.80;;;4.50;99.90;;;;;;4918916;29;20508;-80
2022/02/08 06:18:47;;;;;;;9.55;4.95;;;4.50;99.90;;;;;;4917912;29;20024;-80
2022/02/08 06:21:14;;;;;;;11.38;5.63;;;4.50;99.90;;;;;;4917832;29;20087;-81
2022/02/08 06:23:40;;;;;;;8.40;4.47;;;4.50;99.90;;;;;;4918289;29;20071;-81
2022/02/08 06:26:05;;;;;;;6.93;4.20;;;4.50;99.90;;;;;;4918394;29;20035;-80
2022/02/08 06:28:31;;;;;;;9.57;3.88;;;4.50;99.90;;;;;;4918399;29;20047;-80
2022/02/08 06:30:57;;;;;;;9.10;4.30;;;4.50;99.90;;;;;;4918317;29;20028;-80
2022/02/08 06:33:23;;;;;;;10.02;4.18;;;4.50;99.90;;;;;;4918366;29;20670;-80
2022/02/08 06:35:49;;;;;;;7.80;4.05;;;4.40;99.90;;;;;;4917849;29;20099;-82
2022/02/08 06:38:17;;;;;;;11.43;4.53;;;4.30;99.90;;;;;;4899589;29;20033;-80
2022/02/08 06:40:45;;;;;;;7.15;3.72;;;4.20;99.90;;;;;;4917926;29;20023;-80
2022/02/08 06:43:11;;;;;;;12.00;4.65;;;4.20;99.90;;;;;;4901083;29;20503;-80
2022/02/08 06:45:37;;;;;;;17.17;4.35;;;4.20;99.90;;;;;;4917623;29;20024;-80
2022/02/08 06:48:04;;;;;;;17.35;4.63;;;4.20;99.90;;;;;;4918317;29;20020;-80
2022/02/08 06:50:30;;;;;;;12.35;4.40;;;4.30;99.90;;;;;;4900580;29;20031;-82
2022/02/08 06:52:56;;;;;;;19.77;4.28;;;4.60;99.90;;;;;;4900617;29;20039;-81
2022/02/08 06:55:25;;;;;;;9.00;4.05;;;4.90;99.90;;;;;;4917574;29;20024;-82
2022/02/08 06:57:53;;;;;;;8.98;4.13;;;5.10;99.90;;;;;;4899620;29;20036;-81
2022/02/08 07:00:24;;;;;;;11.57;3.83;;;5.40;99.50;;;;;;4918126;29;20044;-81
2022/02/08 07:02:50;;;;;;;14.68;3.78;;;5.70;99.10;;;;;;4918234;29;20068;-82
2022/02/08 07:05:16;;;;;;;9.75;3.42;;;5.90;98.70;;;;;;4917039;29;20028;-81
2022/02/08 07:07:42;;;;;;;9.70;3.78;;;6.20;98.20;;;;;;4917912;29;20103;-82
2022/02/08 07:10:08;;;;;;;8.20;3.70;;;6.40;98.00;;;;;;4917964;29;20438;-82
2022/02/08 07:12:34;;;;;;;13.40;2.33;;;6.70;98.10;;;;;;4900754;29;20056;-81
2022/02/08 07:15:07;;;;;;;9.35;3.53;;;6.90;97.70;;;;;;4917740;29;20508;-82
2022/02/08 07:17:35;;;;;;;8.50;3.95;;;7.10;97.30;;;;;;4900757;29;20028;-81
2022/02/08 07:20:01;;;;;;;4.72;2.90;;;7.30;97.10;;;;;;4917678;29;20541;-82
2022/02/08 07:22:26;;;;;;;10.50;3.72;;;7.70;97.20;;;;;;4917370;29;20024;-82
2022/02/08 07:24:55;;;;;;;17.15;4.00;;;8.30;97.00;;;;;;4900572;29;20032;-82
2022/02/08 07:27:21;;;;;;;12.52;4.32;;;8.90;96.30;;;;;;4917464;29;20036;-82
2022/02/08 07:29:51;;;;;;;19.58;5.47;;;9.20;95.70;;;;;;4917600;29;20028;-82
2022/02/08 07:32:18;;;;;;;13.93;4.38;;;9.10;95.40;;;;;;4900455;29;20064;-82
2022/02/08 07:34:49;;;;;;;16.77;4.60;;;8.70;95.60;;;;;;4900266;29;20032;-82
2022/02/08 07:37:21;;;;;;;12.73;4.87;;;8.30;95.90;;;;;;4899938;29;20052;-82
2022/02/08 07:39:51;;;;;;;;;;;8.20;96.20;;;;;;4917294;29;20335;-82
2022/02/08 07:42:17;;;;;;;8.45;4.47;;;8.50;96.00;;;;;;4916751;29;20006;-84
2022/02/08 07:44:44;;;;;;;12.27;5.13;;;9.30;95.30;;;;;;4916867;29;20100;-82
2022/02/08 07:47:10;;;;;;;17.63;4.53;;;9.70;94.40;;;;;;4900316;29;20028;-82
2022/02/08 07:49:39;;;;;;;10.57;4.20;;;9.70;94.30;;;;;;4917477;29;20389;-83
2022/02/08 07:52:06;;;;;;;19.65;4.28;;;10.20;94.50;;;;;;4917255;29;20032;-82
2022/02/08 07:54:31;;;;;;;25.55;4.90;;;11.10;93.90;;;;;;4916693;29;20031;-82
2022/02/08 07:56:57;;;;;;;13.85;4.72;;;11.90;92.70;;;;;;4916813;29;20054;-83
2022/02/08 07:59:23;;;;;;;10.05;4.85;;;12.00;92.10;;;;;;4900164;29;20063;-82
2022/02/08 08:01:48;;;;;;;24.40;5.32;;;12.90;91.40;;;;;;4916588;29;20031;-85
2022/02/08 08:04:14;;;;;;;17.75;3.90;;;14.00;90.50;;;;;;4917025;29;20398;-83
2022/02/08 08:06:40;;;;;;;36.80;3.97;;;15.10;86.70;;;;;;4916315;29;20024;-83
2022/02/08 08:09:06;;;;;;;8.45;3.38;;;15.40;84.40;;;;;;4916708;29;20024;-83
2022/02/08 08:11:42;;;;;;;11.20;4.00;;;15.40;84.00;;;;;;4915899;29;20079;-81
2022/02/08 08:14:10;;;;;;;18.30;5.32;;;14.90;83.60;;;;;;4915180;29;20151;-81
2022/02/08 08:19:19;;;;;;;49.78;22.17;;;13.40;86.10;;;;;;4916818;29;20110;-84
2022/02/08 08:21:46;;;;;;;96.93;41.75;;;12.50;87.70;;;;;;4916719;29;20028;-82
2022/02/08 08:24:13;;;;;;;79.60;33.88;;;11.40;89.70;;;;;;4915460;29;20047;-83
2022/02/08 08:26:40;;;;;;;53.47;21.17;;;11.60;90.00;;;;;;4917015;29;20032;-85
2022/02/08 08:29:06;;;;;;;40.55;19.20;;;12.70;88.30;;;;;;4914723;29;20054;-83
2022/02/08 08:31:32;;;;;;;61.10;25.27;;;13.60;86.70;;;;;;4916239;29;20091;-81
2022/02/08 08:33:58;;;;;;;31.77;14.00;;;14.70;85.90;;;;;;4916474;29;20024;-82
2022/02/08 08:36:26;;;;;;;23.20;9.93;;;15.20;81.30;;;;;;4913704;29;20020;-84
2022/02/08 08:38:54;;;;;;;15.77;6.15;;;15.30;81.00;;;;;;4916621;29;20107;-85
2022/02/08 08:51:53;;;;;;;8.80;2.90;;;18.40;73.40;;;;;;4916277;29;20021;-83
2022/02/08 08:54:19;;;;;;;14.02;3.75;;;18.70;72.50;;;;;;4916111;29;20564;-85
2022/02/08 08:56:49;;;;;;;9.15;3.15;;;19.40;70.60;;;;;;4900531;29;20107;-85
2022/02/08 08:59:16;;;;;;;5.45;2.38;;;18.90;69.90;;;;;;4880756;29;20024;-82
2022/02/08 09:01:42;;;;;;;6.85;2.25;;;18.40;71.10;;;;;;4897576;29;20037;-82
2022/02/08 09:04:09;;;;;;;4.35;2.33;;;19.00;70.90;;;;;;4912000;29;20404;-85
2022/02/08 09:06:36;;;;;;;8.73;1.75;;;19.70;68.70;;;;;;4916507;29;20446;-81
2022/02/08 09:09:08;;;;;;;6.30;2.03;;;19.50;69.60;;;;;;4915506;29;20043;-82
2022/02/08 09:16:50;;;;;;;4.75;2.22;;;21.30;63.90;;;;;;4916411;29;20024;-85
2022/02/08 09:29:55;;;;;;;6.07;2.10;;;21.70;59.90;;;;;;4917090;29;20060;-84
2022/02/08 09:35:09;;;;;;;7.60;2.03;;;22.00;57.80;;;;;;4913617;29;20062;-78
2022/02/08 09:37:36;;;;;;;8.20;1.65;;;21.30;58.20;;;;;;4912097;29;20033;-85
2022/02/08 09:40:04;;;;;;;8.27;1.90;;;20.90;58.30;;;;;;4919250;29;20370;-81
2022/02/08 09:42:29;;;;;;;16.15;2.60;;;20.10;59.30;;;;;;4916525;29;20028;-82
2022/02/08 09:44:56;;;;;;;2.40;1.00;;;19.60;59.60;;;;;;4919014;29;20039;-85
2022/02/08 09:47:39;;;;;;;2.00;0.90;;;19.00;58.20;;;;;;4916402;29;20017;-82
2022/02/08 09:50:16;;;;;;;2.28;1.05;;;18.70;58.70;;;;;;4918564;29;20020;-80
2022/02/08 09:52:47;;;;;;;7.25;1.10;;;18.70;59.00;;;;;;4916064;29;20036;-84
2022/02/08 09:55:13;;;;;;;2.17;0.93;;;18.80;58.80;;;;;;4918083;29;20028;-83
2022/02/08 09:57:39;;;;;;;2.75;1.00;;;18.80;59.00;;;;;;4916483;29;20076;-88
2022/02/08 10:00:06;;;;;;;2.30;0.90;;;18.80;58.40;;;;;;4920095;29;20060;-85
2022/02/08 10:02:32;;;;;;;1.63;0.93;;;18.70;58.40;;;;;;4919800;29;20028;-83
2022/02/08 10:05:03;;;;;;;5.97;1.30;;;18.70;58.80;;;;;;4918938;29;20067;-84
2022/02/08 10:07:33;;;;;;;5.93;1.70;;;18.90;58.80;;;;;;4913635;29;20131;-84
2022/02/08 10:09:59;;;;;;;6.25;1.95;;;19.00;58.80;;;;;;4913763;29;20036;-82
2022/02/08 10:12:31;;;;;;;12.63;2.92;;;19.00;59.40;;;;;;4917805;29;20651;-85
2022/02/08 10:22:50;;;;;;;19.10;4.28;;;18.80;60.60;;;;;;4918452;29;20401;-82
2022/02/08 10:25:47;;;;;;;46.22;4.32;;;18.80;60.70;;;;;;4918622;29;20108;-82
2022/02/08 10:28:29;;;;;;;11.27;2.72;;;18.90;60.60;;;;;;4911541;29;20048;-81
2022/02/08 10:38:58;;;;;;;11.57;2.08;;;18.50;59.90;;;;;;4912283;29;20036;-85
2022/02/08 10:41:24;;;;;;;5.63;1.48;;;18.50;59.50;;;;;;4908122;29;20032;-88
2022/02/08 10:43:59;;;;;;;3.33;1.30;;;18.60;58.50;;;;;;4900734;29;20509;-81
2022/02/08 10:46:25;;;;;;;8.25;1.50;;;18.20;58.00;;;;;;4910152;29;20033;-87
2022/02/08 10:49:07;;;;;;;3.97;1.55;;;18.30;59.60;;;;;;4907351;29;20027;-85
2022/02/08 10:51:47;;;;;;;;;;;18.40;59.30;;;;;;4907151;29;20080;-86
2022/02/08 10:54:20;;;;;;;4.50;1.42;;;18.60;58.50;;;;;;4898839;29;19911;-87
2022/02/08 10:56:50;;;;;;;1.83;1.30;;;18.80;59.00;;;;;;4917302;29;20505;-89
2022/02/08 11:01:55;;;;;;;13.52;1.90;;;18.60;58.40;;;;;;4910740;29;20025;-88
2022/02/08 11:04:34;;;;;;;7.10;1.80;;;18.50;58.90;;;;;;4915324;29;20485;-85
2022/02/08 11:07:22;;;;;;;19.98;2.60;;;18.60;59.50;;;;;;4901423;29;20128;-91
2022/02/08 11:10:04;;;;;;;12.02;2.03;;;18.60;58.40;;;;;;4911908;29;20047;-84
2022/02/08 11:12:54;;;;;;;8.68;1.27;;;18.80;58.50;;;;;;4907293;29;20501;-85
2022/02/08 11:21:01;;;;;;;5.57;1.30;;;19.10;57.70;;;;;;4912721;29;20025;-91
2022/02/08 11:23:35;;;;;;;2.70;1.50;;;19.00;57.00;;;;;;4911908;29;20051;-86
2022/02/08 11:26:02;;;;;;;10.85;1.60;;;19.00;58.00;;;;;;4916738;29;20056;-84
2022/02/08 11:28:42;;;;;;;6.57;1.30;;;19.10;57.60;;;;;;4916417;29;20059;-85
2022/02/08 11:31:19;;;;;;;5.47;1.55;;;19.10;57.50;;;;;;4918102;29;20020;-86
2022/02/08 11:53:29;;;;;;;3.65;1.73;;;18.90;51.20;;;;;;4915462;29;20021;-81
2022/02/08 12:09:48;;;;;;;2.58;1.08;;;17.80;55.40;;;;;;4905740;29;20028;-83
2022/02/08 12:56:52;;;;;;;0.82;0.65;;;14.80;54.80;;;;;;4912991;29;20043;-80
2022/02/08 13:05:42;;;;;;;2.15;0.95;;;14.30;56.50;;;;;;4918898;29;20014;-82
2022/02/08 14:18:44;;;;;;;5.68;1.40;;;13.10;58.20;;;;;;4910294;29;20035;-80
2022/02/08 14:32:14;;;;;;;7.82;1.23;;;13.00;58.00;;;;;;4924946;23;20506;-81
2022/02/08 15:10:24;;;;;;;3.90;1.50;;;12.80;61.30;;;;;;4900632;29;20040;-81
2022/02/08 15:12:58;;;;;;;8.93;2.92;;;12.70;61.70;;;;;;4880585;29;20043;-85
2022/02/08 15:16:01;;;;;;;6.75;1.35;;;12.70;61.30;;;;;;4901176;29;20048;-84
2022/02/08 15:18:29;;;;;;;10.32;1.65;;;12.60;61.80;;;;;;4898969;29;20088;-81
2022/02/08 15:20:55;;;;;;;7.53;1.70;;;12.60;61.50;;;;;;4898443;29;20032;-82
2022/02/08 15:23:22;;;;;;;2.25;1.73;;;12.60;61.80;;;;;;4898094;29;20044;-82
2022/02/08 15:25:51;;;;;;;6.82;2.63;;;12.60;61.90;;;;;;4897015;29;20488;-81
2022/02/08 15:28:17;;;;;;;3.60;2.17;;;12.60;62.20;;;;;;4897236;29;20025;-82
2022/02/08 15:30:43;;;;;;;8.75;2.10;;;12.60;61.50;;;;;;4899590;29;20058;-82
2022/02/08 15:33:11;;;;;;;5.63;2.33;;;12.50;60.70;;;;;;4898541;29;20060;-82
2022/02/08 15:35:37;;;;;;;9.65;5.78;;;12.50;60.60;;;;;;4910419;29;20039;-82
2022/02/08 15:38:05;;;;;;;8.40;4.50;;;12.50;61.40;;;;;;4897687;29;20021;-82
2022/02/08 15:40:34;;;;;;;8.23;4.07;;;12.30;62.90;;;;;;4897891;29;20055;-83
2022/02/08 15:43:01;;;;;;;10.13;4.40;;;12.30;64.00;;;;;;4896974;29;20485;-84
2022/02/08 15:45:35;;;;;;;16.95;3.15;;;12.20;64.40;;;;;;4896807;29;20040;-81
2022/02/08 15:48:13;;;;;;;8.80;2.35;;;12.20;71.70;;;;;;5126542;27;20938;-83
2022/02/08 15:53:48;;;;;;;10.00;3.50;;;12.10;81.40;;;;;;5106555;28;20026;-83
2022/02/08 16:01:14;;;;;;;17.15;3.42;;;11.90;72.10;;;;;;5109131;28;20024;-87
2022/02/08 16:09:24;;;;;;;11.23;5.57;;;11.70;72.70;;;;;;5108688;28;20470;-85
2022/02/08 16:16:57;;;;;;;18.73;6.68;;;11.40;77.40;;;;;;5108745;28;20031;-80
2022/02/08 16:19:42;;;;;;;8.05;4.00;;;11.30;76.90;;;;;;5103744;28;20075;-80
2022/02/08 16:46:19;;;;;;;7.47;5.45;;;10.70;75.30;;;;;;5105160;28;20038;-83
2022/02/08 16:54:41;;;;;;;14.07;5.28;;;10.60;73.70;;;;;;5107013;28;20024;-85
2022/02/08 16:57:09;;;;;;;23.15;9.23;;;10.50;76.70;;;;;;5105473;28;20495;-84
2022/02/08 16:59:37;;;;;;;38.15;10.00;;;10.50;79.00;;;;;;5091112;28;20126;-86
2022/02/08 17:02:06;;;;;;;37.60;10.50;;;10.40;84.00;;;;;;5093460;28;20468;-86
2022/02/08 17:04:32;;;;;;;36.97;10.65;;;10.30;88.60;;;;;;5093743;28;20032;-85
2022/02/08 17:06:58;;;;;;;51.20;17.77;;;10.30;90.40;;;;;;5094314;28;20028;-86
2022/02/08 17:09:41;;;;;;;28.95;13.55;;;10.20;90.00;;;;;;5093572;28;20380;-85
2022/02/08 17:12:18;;;;;;;23.83;9.75;;;10.10;86.80;;;;;;5075478;28;20077;-83
2022/02/08 17:49:35;;;;;;;31.80;17.17;;;9.30;87.40;;;;;;5090691;28;20089;-81
2022/02/08 17:52:00;;;;;;;33.63;12.85;;;9.20;86.50;;;;;;5089743;28;20419;-81
2022/02/08 17:54:26;;;;;;;49.33;14.25;;;9.20;87.60;;;;;;5090113;28;20020;-81
2022/02/08 17:56:54;;;;;;;51.63;13.57;;;9.00;88.30;;;;;;5088433;28;20037;-81
2022/02/08 17:59:24;;;;;;;52.05;13.43;;;8.90;88.60;;;;;;5089390;28;20032;-81
2022/02/08 18:01:53;;;;;;;40.33;13.10;;;8.80;89.10;;;;;;5088351;28;20103;-82
2022/02/08 18:04:19;;;;;;;51.53;13.30;;;8.80;89.40;;;;;;5088955;28;20571;-82
2022/02/08 18:06:45;;;;;;;30.83;12.93;;;8.80;89.50;;;;;;5090664;28;20019;-85
2022/02/08 18:09:12;;;;;;;41.05;12.52;;;8.80;90.10;;;;;;5089794;28;20020;-85
2022/02/08 18:11:41;;;;;;;26.08;11.32;;;8.70;90.10;;;;;;5089720;28;20073;-83
2022/02/08 18:14:09;;;;;;;31.90;12.27;;;8.70;90.10;;;;;;5084369;28;20032;-83
2022/02/08 18:16:36;;;;;;;23.02;10.43;;;8.70;90.10;;;;;;5093204;28;20062;-85
2022/02/08 18:19:12;;;;;;;24.33;9.13;;;8.70;88.40;;;;;;5092316;28;20436;-85
2022/02/08 18:21:55;;;;;;;31.17;10.30;;;8.70;86.40;;;;;;5089753;28;20464;-80
2022/02/08 18:24:45;;;;;;;22.38;9.77;;;8.70;86.30;;;;;;5091615;28;20115;-79
2022/02/08 19:08:06;;;;;;;24.63;13.13;;;7.30;89.00;;;;;;5071195;28;20043;-82
2022/02/08 19:20:56;;;;;;;21.65;10.95;;;7.40;90.10;;;;;;5092533;28;21120;-80
2022/02/08 19:23:22;;;;;;;25.63;11.68;;;7.30;89.50;;;;;;5090595;28;20032;-81
2022/02/08 19:25:48;;;;;;;19.23;10.38;;;7.20;89.10;;;;;;5091993;28;20097;-81
2022/02/08 19:28:13;;;;;;;21.10;10.00;;;7.20;89.20;;;;;;5092255;28;20115;-81
2022/02/08 19:30:39;;;;;;;28.70;9.60;;;7.00;89.20;;;;;;5092047;28;20028;-79
2022/02/08 19:33:05;;;;;;;30.20;11.00;;;6.90;89.70;;;;;;5090714;28;20452;-80
2022/02/08 19:35:30;;;;;;;24.38;11.38;;;7.00;89.90;;;;;;5092054;28;20357;-80
2022/02/08 19:37:57;;;;;;;20.33;10.75;;;7.00;90.10;;;;;;5090581;28;20387;-80
2022/02/08 19:40:23;;;;;;;24.83;11.35;;;7.10;90.10;;;;;;5089018;28;20027;-82
2022/02/08 19:42:49;;;;;;;21.35;10.07;;;7.20;90.30;;;;;;5088451;28;20048;-80
2022/02/08 19:45:21;;;;;;;33.35;11.82;;;7.20;90.70;;;;;;5091858;28;20059;-81
2022/02/08 19:47:47;;;;;;;33.90;13.73;;;7.10;91.60;;;;;;5089847;28;20040;-80
2022/02/08 19:50:13;;;;;;;41.38;14.57;;;6.90;91.80;;;;;;5091215;28;20059;-82
2022/02/08 19:52:40;;;;;;;26.92;12.23;;;6.80;91.30;;;;;;5090817;28;20498;-82
2022/02/08 19:57:43;;;;;;;27.05;13.00;;;6.80;90.90;;;;;;5088765;28;20111;-82
2022/02/08 20:00:16;;;;;;;30.10;13.68;;;6.80;91.20;;;;;;5090521;28;20152;-81
2022/02/08 20:02:46;;;;;;;32.90;11.15;;;6.90;91.40;;;;;;5087865;28;20072;-80
2022/02/08 20:05:15;;;;;;;21.88;11.10;;;6.80;90.80;;;;;;5091150;28;20019;-83
2022/02/08 20:07:40;;;;;;;25.77;11.10;;;6.80;90.80;;;;;;5088973;28;20081;-83
2022/02/08 20:10:07;;;;;;;27.75;10.95;;;6.80;90.90;;;;;;5089553;28;20032;-83
2022/02/08 20:12:32;;;;;;;29.00;11.80;;;6.80;90.90;;;;;;5091121;28;20051;-86
2022/02/08 20:14:58;;;;;;;38.78;13.85;;;6.80;91.00;;;;;;5091354;28;20480;-84
2022/02/08 20:17:24;;;;;;;23.52;12.50;;;6.80;91.10;;;;;;5091121;28;20055;-82
2022/02/08 20:19:52;;;;;;;21.90;9.95;;;6.80;91.50;;;;;;5091238;28;20024;-84
2022/02/08 20:22:19;;;;;;;22.35;11.65;;;6.80;91.30;;;;;;5091306;28;20445;-85
2022/02/08 20:24:47;;;;;;;28.10;11.98;;;6.70;91.70;;;;;;5091973;28;20024;-85
2022/02/08 20:27:34;;;;;;;23.80;10.25;;;6.60;92.40;;;;;;5087391;28;20060;-82
2022/02/08 20:29:58;;;;;;;22.50;11.57;;;6.60;91.80;;;;;;5090701;28;20059;-82
2022/02/08 20:32:24;;;;;;;22.02;11.15;;;6.40;91.70;;;;;;5090313;28;20024;-84
2022/02/08 20:34:50;;;;;;;26.27;12.25;;;6.40;91.80;;;;;;5093628;28;20465;-87
2022/02/08 20:37:16;;;;;;;29.65;15.95;;;6.40;92.00;;;;;;5089546;28;20267;-84
2022/02/08 20:39:41;;;;;;;30.02;13.27;;;6.50;92.40;;;;;;5094853;28;20072;-83
2022/02/08 20:42:07;;;;;;;27.77;12.38;;;6.50;92.30;;;;;;5093921;28;20051;-84
2022/02/08 20:44:37;;;;;;;19.38;10.27;;;6.60;92.10;;;;;;5094810;28;20020;-85
2022/02/08 20:47:18;;;;;;;19.60;9.98;;;6.70;91.50;;;;;;5093005;28;20040;-84
2022/02/08 20:49:45;;;;;;;20.30;10.80;;;6.80;91.10;;;;;;5092191;28;20093;-85
2022/02/08 20:52:11;;;;;;;28.55;12.35;;;6.90;91.10;;;;;;5094329;28;20028;-84
2022/02/08 20:54:39;;;;;;;27.95;13.98;;;6.90;91.10;;;;;;5094519;28;20490;-81
2022/02/08 20:57:11;;;;;;;19.88;10.95;;;6.80;92.60;;;;;;5093402;28;20028;-82
2022/02/08 20:59:37;;;;;;;20.45;9.70;;;6.70;91.70;;;;;;5094519;28;20024;-83
2022/02/08 21:02:03;;;;;;;17.13;9.00;;;6.50;91.00;;;;;;5092900;28;20512;-83
2022/02/08 21:04:41;;;;;;;19.92;8.95;;;6.30;91.20;;;;;;5091985;28;20038;-84
2022/02/08 21:07:06;;;;;;;17.95;8.00;;;6.30;91.00;;;;;;5092640;28;20024;-83
2022/02/08 21:09:32;;;;;;;17.52;8.00;;;6.30;90.40;;;;;;5094425;28;20464;-83
2022/02/08 21:12:16;;;;;;;18.17;9.00;;;6.30;90.30;;;;;;5092202;28;20036;-83